Time;durP1;ratioP1;P1;durP2;ratioP2;P2;SDS_P1;SDS_P2;PMS_P1;PMS_P2;Temp;Humidity;BMP_temperature;BMP_pressure;BME280_temperature;BME280_humidity;BME280_pressure;Samples;Min_cycle;Max_cycle;Signal;HPM_P1;HPM_P2
2022/06/24 00:01:05;;;;;;;;;;;;;;;;;;5041320;28;46955;-75
2022/06/24 00:03:31;;;;;;;;;;;;;;;;;;5036068;28;46527;-75
2022/06/24 00:05:58;;;;;;;;;;;;;;;;;;5037851;28;47150;-76
2022/06/24 00:08:24;;;;;;;;;;;;;;;;;;5040190;28;45815;-74
2022/06/24 00:10:50;;;;;;;;;;;;;;;;;;5024898;28;46494;-76
2022/06/24 00:13:16;;;;;;;;;;;;;;;;;;5023904;28;46361;-75
2022/06/24 00:15:52;;;;;;;;;;;;;;;;;;5021266;28;44833;-75
2022/06/24 00:18:22;;;;;;;;;;;;;;;;;;5028307;28;47599;-74
2022/06/24 00:20:48;;;;;;;;;;;;;;;;;;5025057;28;48099;-76
2022/06/24 00:23:14;;;;;;;;;;;;;;;;;;5038516;28;45114;-75
2022/06/24 00:25:42;;;;;;;;;;;;;;;;;;5041503;28;47275;-74
2022/06/24 00:28:09;;;;;;;;;;;;;;;;;;5018702;28;44260;-75
2022/06/24 00:30:36;;;;;;;;;;;;;;;;;;5039830;28;20016;-75
2022/06/24 00:33:11;;;;;;;;;;;;;;;;;;5018855;28;44282;-76
2022/06/24 00:35:37;;;;;;;;;;;;;;;;;;5042274;28;43005;-76
2022/06/24 00:38:04;;;;;;;;;;;;;;;;;;5020416;28;46496;-75
2022/06/24 00:40:31;;;;;;;;;;;;;;;;;;5021431;28;48047;-76
2022/06/24 00:42:57;;;;;;;;;;;;;;;;;;5038464;28;45817;-76
2022/06/24 00:45:24;;;;;;;;;;;;;;;;;;5044876;28;47027;-74
2022/06/24 00:47:50;;;;;;;;;;;;;;;;;;5040206;28;45847;-76
2022/06/24 00:50:19;;;;;;;;;;;;;;;;;;5027021;28;45732;-75
2022/06/24 00:52:45;;;;;;;;;;;;;;;;;;5028611;28;47180;-76
2022/06/24 00:55:12;;;;;;;;;;;;;;;;;;5028271;28;45005;-75
2022/06/24 00:57:38;;;;;;;;;;;;;;;;;;5023862;28;46490;-75
2022/06/24 01:00:04;;;;;;;;;;;;;;;;;;5043078;28;46493;-75
2022/06/24 01:02:30;;;;;;;;;;;;;;;;;;5063536;28;44358;-75
2022/06/24 01:04:57;;;;;;;;;;;;;;;;;;5065209;28;46494;-76
2022/06/24 01:07:23;;;;;;;;;;;;;;;;;;5027195;28;42581;-75
2022/06/24 01:09:50;;;;;;;;;;;;;;;;;;5027636;28;47541;-77
2022/06/24 01:12:16;;;;;;;;;;;;;;;;;;5026504;28;45925;-75
2022/06/24 01:14:42;;;;;;;;;;;;;;;;;;5049483;28;44214;-78
2022/06/24 01:17:10;;;;;;;;;;;;;;;;;;5024548;28;48551;-78
2022/06/24 01:19:36;;;;;;;;;;;;;;;;;;5022503;28;46983;-77
2022/06/24 01:22:03;;;;;;;;;;;;;;;;;;5050549;28;44669;-77
2022/06/24 01:24:29;;;;;;;;;;;;;;;;;;5019523;28;47855;-78
2022/06/24 01:26:55;;;;;;;;;;;;;;;;;;5037696;28;46925;-79
2022/06/24 01:29:22;;;;;;;;;;;;;;;;;;5051758;28;43512;-77
2022/06/24 01:31:48;;;;;;;;;;;;;;;;;;5038376;28;48171;-77
2022/06/24 01:34:15;;;;;;;;;;;;;;;;;;5041664;28;44726;-78
2022/06/24 01:36:41;;;;;;;;;;;;;;;;;;5039173;28;45335;-78
2022/06/24 01:39:08;;;;;;;;;;;;;;;;;;5039927;28;46023;-80
2022/06/24 01:41:34;;;;;;;;;;;;;;;;;;5030221;28;45940;-79
2022/06/24 01:44:01;;;;;;;;;;;;;;;;;;5046607;28;44897;-79
2022/06/24 01:46:27;;;;;;;;;;;;;;;;;;5050369;28;45521;-79
2022/06/24 01:48:54;;;;;;;;;;;;;;;;;;5064182;28;42818;-78
2022/06/24 01:51:20;;;;;;;;;;;;;;;;;;5039137;28;45932;-77
2022/06/24 01:53:46;;;;;;;;;;;;;;;;;;5051107;28;43468;-76
2022/06/24 01:56:13;;;;;;;;;;;;;;;;;;5021827;28;44003;-76
2022/06/24 01:58:39;;;;;;;;;;;;;;;;;;5030067;28;45932;-76
2022/06/24 02:01:05;;;;;;;;;;;;;;;;;;5034813;28;44854;-77
2022/06/24 02:03:32;;;;;;;;;;;;;;;;;;5038542;28;47508;-78
2022/06/24 02:05:58;;;;;;;;;;;;;;;;;;5037071;28;47012;-78
2022/06/24 02:08:24;;;;;;;;;;;;;;;;;;5036478;28;47664;-77
2022/06/24 02:13:36;;;;;;;;;;;;;;;;;;5047714;28;44410;-78
2022/06/24 02:16:03;;;;;;;;;;;;;;;;;;5033759;28;43045;-77
2022/06/24 02:18:29;;;;;;;;;;;;;;;;;;5030947;28;49319;-77
2022/06/24 02:20:55;;;;;;;;;;;;;;;;;;5048476;28;46311;-78
2022/06/24 02:23:21;;;;;;;;;;;;;;;;;;5029405;28;48380;-76
2022/06/24 02:25:48;;;;;;;;;;;;;;;;;;5033575;28;49609;-77
2022/06/24 02:28:14;;;;;;;;;;;;;;;;;;5034685;28;47621;-77
2022/06/24 02:30:40;;;;;;;;;;;;;;;;;;5019880;28;48355;-77
2022/06/24 02:33:07;;;;;;;;;;;;;;;;;;5019051;28;34233;-77
2022/06/24 02:35:33;;;;;;;;;;;;;;;;;;5027638;28;44890;-77
2022/06/24 02:37:59;;;;;;;;;;;;;;;;;;5027215;28;46324;-77
2022/06/24 02:43:11;;;;;;;;;;;;;;;;;;5013379;28;46141;-77
2022/06/24 02:45:38;;;;;;;;;;;;;;;;;;5024035;28;48167;-76
2022/06/24 02:48:07;;;;;;;;;;;;;;;;;;5025110;28;44840;-77
2022/06/24 02:50:33;;;;;;;;;;;;;;;;;;5030452;28;44597;-78
2022/06/24 02:52:59;;;;;;;;;;;;;;;;;;5032837;28;46903;-78
2022/06/24 02:55:26;;;;;;;;;;;;;;;;;;5033847;28;45841;-78
2022/06/24 02:57:52;;;;;;;;;;;;;;;;;;5055380;28;47329;-79
2022/06/24 03:00:18;;;;;;;;;;;;;;;;;;5035849;28;47194;-78
2022/06/24 03:02:45;;;;;;;;;;;;;;;;;;5041687;28;49394;-78
2022/06/24 03:05:11;;;;;;;;;;;;;;;;;;5039276;28;47039;-78
2022/06/24 03:07:37;;;;;;;;;;;;;;;;;;5037393;28;44519;-78
2022/06/24 03:10:03;;;;;;;;;;;;;;;;;;5024593;28;47499;-78
2022/06/24 03:12:30;;;;;;;;;;;;;;;;;;5035997;28;48349;-78
2022/06/24 03:14:56;;;;;;;;;;;;;;;;;;5040192;28;44039;-78
2022/06/24 03:17:23;;;;;;;;;;;;;;;;;;5038327;28;48126;-79
2022/06/24 03:19:49;;;;;;;;;;;;;;;;;;5034855;28;42958;-79
2022/06/24 03:22:15;;;;;;;;;;;;;;;;;;5038326;28;46286;-79
2022/06/24 03:24:42;;;;;;;;;;;;;;;;;;5038959;28;46036;-78
2022/06/24 03:27:08;;;;;;;;;;;;;;;;;;5039164;28;46402;-78
2022/06/24 03:29:34;;;;;;;;;;;;;;;;;;5040950;28;44291;-78
2022/06/24 03:32:00;;;;;;;;;;;;;;;;;;5035985;28;44590;-78
2022/06/24 03:34:27;;;;;;;;;;;;;;;;;;5023956;28;43144;-78
2022/06/24 03:36:53;;;;;;;;;;;;;;;;;;5042504;28;46074;-78
2022/06/24 03:39:19;;;;;;;;;;;;;;;;;;5034481;28;47937;-78
2022/06/24 03:41:46;;;;;;;;;;;;;;;;;;5028811;28;44573;-77
2022/06/24 03:44:12;;;;;;;;;;;;;;;;;;5030234;28;46718;-78
2022/06/24 03:46:38;;;;;;;;;;;;;;;;;;5027901;28;47004;-78
2022/06/24 03:49:04;;;;;;;;;;;;;;;;;;5028036;28;48988;-77
2022/06/24 03:51:31;;;;;;;;;;;;;;;;;;5024216;28;49932;-77
2022/06/24 03:53:57;;;;;;;;;;;;;;;;;;5023378;28;42350;-77
2022/06/24 03:56:23;;;;;;;;;;;;;;;;;;5008153;28;45848;-77
2022/06/24 03:58:50;;;;;;;;;;;;;;;;;;5020046;28;48247;-76
2022/06/24 04:01:16;;;;;;;;;;;;;;;;;;5016511;28;49509;-77
2022/06/24 04:03:42;;;;;;;;;;;;;;;;;;5017633;28;49910;-77
2022/06/24 04:06:08;;;;;;;;;;;;;;;;;;5020023;28;44518;-77
2022/06/24 04:08:35;;;;;;;;;;;;;;;;;;5013812;28;48741;-77
2022/06/24 04:11:01;;;;;;;;;;;;;;;;;;5017625;28;48083;-76
2022/06/24 04:13:27;;;;;;;;;;;;;;;;;;5007239;28;47861;-77
2022/06/24 04:15:55;;;;;;;;;;;;;;;;;;5009388;28;48900;-77
2022/06/24 04:18:22;;;;;;;;;;;;;;;;;;5019535;28;44380;-76
2022/06/24 04:20:48;;;;;;;;;;;;;;;;;;5017120;28;47278;-77
2022/06/24 04:23:14;;;;;;;;;;;;;;;;;;5017141;28;44523;-77
2022/06/24 04:25:41;;;;;;;;;;;;;;;;;;5004144;28;47276;-76
2022/06/24 04:28:07;;;;;;;;;;;;;;;;;;5016926;28;45384;-77
2022/06/24 04:30:33;;;;;;;;;;;;;;;;;;5003829;28;47971;-76
2022/06/24 04:32:59;;;;;;;;;;;;;;;;;;5020442;28;45805;-76
2022/06/24 04:35:26;;;;;;;;;;;;;;;;;;5019285;28;48248;-77
2022/06/24 04:37:52;;;;;;;;;;;;;;;;;;5015832;28;47992;-76
2022/06/24 04:40:18;;;;;;;;;;;;;;;;;;5014720;28;42734;-77
2022/06/24 04:42:44;;;;;;;;;;;;;;;;;;5020010;28;44638;-77
2022/06/24 04:45:10;;;;;;;;;;;;;;;;;;5021854;28;42129;-77
2022/06/24 04:47:37;;;;;;;;;;;;;;;;;;5006280;28;48623;-76
2022/06/24 04:50:04;;;;;;;;;;;;;;;;;;5010242;28;47529;-77
2022/06/24 04:52:31;;;;;;;;;;;;;;;;;;5014340;28;43804;-77
2022/06/24 04:54:57;;;;;;;;;;;;;;;;;;4981910;28;1069991;-77
2022/06/24 04:57:24;;;;;;;;;;;;;;;;;;5016268;28;47003;-77
2022/06/24 04:59:50;;;;;;;;;;;;;;;;;;5018609;28;41892;-77
2022/06/24 05:02:16;;;;;;;;;;;;;;;;;;5021187;28;45362;-77
2022/06/24 05:04:42;;;;;;;;;;;;;;;;;;5006564;28;40779;-78
2022/06/24 05:07:09;;;;;;;;;;;;;;;;;;5010718;28;45849;-77
2022/06/24 05:09:35;;;;;;;;;;;;;;;;;;5018462;28;45939;-77
2022/06/24 05:12:01;;;;;;;;;;;;;;;;;;5020351;28;45005;-77
2022/06/24 05:14:28;;;;;;;;;;;;;;;;;;5020108;28;47732;-78
2022/06/24 05:16:54;;;;;;;;;;;;;;;;;;5018316;28;46860;-77
2022/06/24 05:19:20;;;;;;;;;;;;;;;;;;5014168;28;42910;-77
2022/06/24 05:21:46;;;;;;;;;;;;;;;;;;5002859;28;48243;-77
2022/06/24 05:24:13;;;;;;;;;;;;;;;;;;5002422;28;46799;-77
2022/06/24 05:26:39;;;;;;;;;;;;;;;;;;5007524;28;44710;-77
2022/06/24 05:29:05;;;;;;;;;;;;;;;;;;5008111;28;48546;-77
2022/06/24 05:31:31;;;;;;;;;;;;;;;;;;5022419;28;44210;-77
2022/06/24 05:33:58;;;;;;;;;;;;;;;;;;5015674;28;46197;-77
2022/06/24 05:36:24;;;;;;;;;;;;;;;;;;5018859;28;47550;-77
2022/06/24 05:38:50;;;;;;;;;;;;;;;;;;5009139;28;43066;-77
2022/06/24 05:41:17;;;;;;;;;;;;;;;;;;5006292;28;48061;-77
2022/06/24 05:43:43;;;;;;;;;;;;;;;;;;5021011;28;46975;-77
2022/06/24 05:46:09;;;;;;;;;;;;;;;;;;5001586;28;43432;-77
2022/06/24 05:48:36;;;;;;;;;;;;;;;;;;5020255;28;46146;-77
2022/06/24 05:51:02;;;;;;;;;;;;;;;;;;5021444;28;44684;-78
2022/06/24 05:56:13;;;;;;;;;;;;;;;;;;5032892;28;47002;-78
2022/06/24 05:58:39;;;;;;;;;;;;;;;;;;5037464;28;44742;-77
2022/06/24 06:01:05;;;;;;;;;;;;;;;;;;5037253;28;46568;-77
2022/06/24 06:03:32;;;;;;;;;;;;;;;;;;5023704;28;48124;-77
2022/06/24 06:05:58;;;;;;;;;;;;;;;;;;5042006;28;43211;-78
2022/06/24 06:08:24;;;;;;;;;;;;;;;;;;5030677;28;44741;-77
2022/06/24 06:10:51;;;;;;;;;;;;;;;;;;5014711;28;43251;-77
2022/06/24 06:13:17;;;;;;;;;;;;;;;;;;5023411;28;44938;-78
2022/06/24 06:15:43;;;;;;;;;;;;;;;;;;5013545;28;45566;-77
2022/06/24 06:18:10;;;;;;;;;;;;;;;;;;5043157;28;44940;-77
2022/06/24 06:20:36;;;;;;;;;;;;;;;;;;5021029;28;45483;-78
2022/06/24 06:23:06;;;;;;;;;;;;;;;;;;5027437;28;48126;-78
2022/06/24 06:25:33;;;;;;;;;;;;;;;;;;5031427;28;44529;-75
2022/06/24 06:27:59;;;;;;;;;;;;;;;;;;5008809;28;47623;-77
2022/06/24 06:30:25;;;;;;;;;;;;;;;;;;5022294;28;48021;-77
2022/06/24 06:32:52;;;;;;;;;;;;;;;;;;5031281;28;47841;-77
2022/06/24 06:35:18;;;;;;;;;;;;;;;;;;5015542;28;48455;-76
2022/06/24 06:37:44;;;;;;;;;;;;;;;;;;5036166;28;45898;-77
2022/06/24 06:40:11;;;;;;;;;;;;;;;;;;5033615;28;46469;-77
2022/06/24 06:42:37;;;;;;;;;;;;;;;;;;5008118;28;46573;-77
2022/06/24 06:45:06;;;;;;;;;;;;;;;;;;5021092;28;45096;-77
2022/06/24 06:47:33;;;;;;;;;;;;;;;;;;5036980;28;46034;-78
2022/06/24 06:50:00;;;;;;;;;;;;;;;;;;5039153;28;46995;-78
2022/06/24 06:52:26;;;;;;;;;;;;;;;;;;5026124;28;46810;-77
2022/06/24 06:54:52;;;;;;;;;;;;;;;;;;5011739;28;45222;-79
2022/06/24 06:57:19;;;;;;;;;;;;;;;;;;5037243;28;42917;-78
2022/06/24 06:59:46;;;;;;;;;;;;;;;;;;5035862;28;47759;-78
2022/06/24 07:02:13;;;;;;;;;;;;;;;;;;5040118;28;46992;-78
2022/06/24 07:04:39;;;;;;;;;;;;;;;;;;5023138;28;45380;-79
2022/06/24 07:07:05;;;;;;;;;;;;;;;;;;5025798;28;46252;-78
2022/06/24 07:09:31;;;;;;;;;;;;;;;;;;5018801;28;49695;-77
2022/06/24 07:11:58;;;;;;;;;;;;;;;;;;5026181;28;46292;-76
2022/06/24 07:14:24;;;;;;;;;;;;;;;;;;5035600;28;46735;-77
2022/06/24 07:16:50;;;;;;;;;;;;;;;;;;5010190;28;46075;-78
2022/06/24 07:19:17;;;;;;;;;;;;;;;;;;5026037;28;46620;-77
2022/06/24 07:21:43;;;;;;;;;;;;;;;;;;5010452;28;46910;-77
2022/06/24 07:24:09;;;;;;;;;;;;;;;;;;5043145;28;44694;-77
2022/06/24 07:26:35;;;;;;;;;;;;;;;;;;5039870;28;46495;-77
2022/06/24 07:29:02;;;;;;;;;;;;;;;;;;5035183;28;48101;-77
2022/06/24 07:31:28;;;;;;;;;;;;;;;;;;5016118;28;44529;-78
2022/06/24 07:33:55;;;;;;;;;;;;;;;;;;5022153;28;46283;-78
2022/06/24 07:36:21;;;;;;;;;;;;;;;;;;5038664;28;44059;-77
2022/06/24 07:38:47;;;;;;;;;;;;;;;;;;5021874;28;46403;-77
2022/06/24 07:41:14;;;;;;;;;;;;;;;;;;5038313;28;46894;-78
2022/06/24 07:43:40;;;;;;;;;;;;;;;;;;5029520;28;45854;-77
2022/06/24 07:46:08;;;;;;;;;;;;;;;;;;5041826;28;46285;-78
2022/06/24 07:48:35;;;;;;;;;;;;;;;;;;5039972;28;46994;-78
2022/06/24 07:51:02;;;;;;;;;;;;;;;;;;5006685;28;45971;-78
2022/06/24 07:53:30;;;;;;;;;;;;;;;;;;5009224;28;45382;-78
2022/06/24 07:58:41;;;;;;;;;;;;;;;;;;5022542;28;45306;-77
2022/06/24 08:01:07;;;;;;;;;;;;;;;;;;5039552;28;48179;-77
2022/06/24 08:03:34;;;;;;;;;;;;;;;;;;5027891;28;43336;-77
2022/06/24 08:06:01;;;;;;;;;;;;;;;;;;5019307;28;46843;-78
2022/06/24 08:08:27;;;;;;;;;;;;;;;;;;5041775;28;46765;-77
2022/06/24 08:10:53;;;;;;;;;;;;;;;;;;5014238;28;45834;-77
2022/06/24 08:13:20;;;;;;;;;;;;;;;;;;5033036;28;46543;-77
2022/06/24 08:15:46;;;;;;;;;;;;;;;;;;5023857;28;47153;-77
2022/06/24 08:18:12;;;;;;;;;;;;;;;;;;5042582;28;46291;-77
2022/06/24 08:20:38;;;;;;;;;;;;;;;;;;5035308;28;47962;-77
2022/06/24 08:23:05;;;;;;;;;;;;;;;;;;5043161;28;46128;-78
2022/06/24 08:25:31;;;;;;;;;;;;;;;;;;5037248;28;47961;-78
2022/06/24 08:27:57;;;;;;;;;;;;;;;;;;5031432;28;45874;-78
2022/06/24 08:30:23;;;;;;;;;;;;;;;;;;5020790;28;45823;-79
2022/06/24 08:32:50;;;;;;;;;;;;;;;;;;5040425;28;48168;-78
2022/06/24 08:35:16;;;;;;;;;;;;;;;;;;5040163;28;48234;-77
2022/06/24 08:37:51;;;;;;;;;;;;;;;;;;5025605;28;44666;-78
2022/06/24 08:40:18;;;;;;;;;;;;;;;;;;5041251;28;47534;-78
2022/06/24 08:42:44;;;;;;;;;;;;;;;;;;5019616;28;46618;-78
2022/06/24 08:45:10;;;;;;;;;;;;;;;;;;5031892;28;46249;-78
2022/06/24 08:47:37;;;;;;;;;;;;;;;;;;5022774;28;46896;-75
2022/06/24 08:50:04;;;;;;;;;;;;;;;;;;5030647;28;44311;-77
2022/06/24 08:52:30;;;;;;;;;;;;;;;;;;5041755;28;47664;-77
2022/06/24 08:54:57;;;;;;;;;;;;;;;;;;5021226;28;46144;-78
2022/06/24 08:57:23;;;;;;;;;;;;;;;;;;5020972;28;44963;-77
2022/06/24 08:59:49;;;;;;;;;;;;;;;;;;5039416;28;46335;-77
2022/06/24 09:02:17;;;;;;;;;;;;;;;;;;5030745;28;46114;-77
2022/06/24 09:04:44;;;;;;;;;;;;;;;;;;5022296;28;46410;-77
2022/06/24 09:07:10;;;;;;;;;;;;;;;;;;5027152;28;45806;-77
2022/06/24 09:09:36;;;;;;;;;;;;;;;;;;5027405;28;44661;-77
2022/06/24 09:12:03;;;;;;;;;;;;;;;;;;5042061;28;46480;-77
2022/06/24 09:14:29;;;;;;;;;;;;;;;;;;5041494;28;48107;-77
2022/06/24 09:16:55;;;;;;;;;;;;;;;;;;5024158;28;45804;-77
2022/06/24 09:19:24;;;;;;;;;;;;;;;;;;5013700;28;45554;-77
2022/06/24 09:21:50;;;;;;;;;;;;;;;;;;5015173;28;47846;-78
2022/06/24 09:24:16;;;;;;;;;;;;;;;;;;5045687;28;46032;-77
2022/06/24 09:26:43;;;;;;;;;;;;;;;;;;5038567;28;48096;-78
2022/06/24 09:29:09;;;;;;;;;;;;;;;;;;5025121;28;43588;-77
2022/06/24 09:31:36;;;;;;;;;;;;;;;;;;5042948;28;46653;-78
2022/06/24 09:34:03;;;;;;;;;;;;;;;;;;5026635;28;45545;-78
2022/06/24 09:36:29;;;;;;;;;;;;;;;;;;5031950;28;43057;-78
2022/06/24 09:38:55;;;;;;;;;;;;;;;;;;5015288;28;47911;-78
2022/06/24 09:41:22;;;;;;;;;;;;;;;;;;5043322;28;47118;-77
2022/06/24 09:43:48;;;;;;;;;;;;;;;;;;5035082;28;44755;-79
2022/06/24 09:46:14;;;;;;;;;;;;;;;;;;5022553;28;46678;-79
2022/06/24 09:48:41;;;;;;;;;;;;;;;;;;5021984;28;46190;-78
2022/06/24 09:51:07;;;;;;;;;;;;;;;;;;5028261;28;46443;-78
2022/06/24 09:53:35;;;;;;;;;;;;;;;;;;5020019;28;46977;-78
2022/06/24 09:56:01;;;;;;;;;;;;;;;;;;5029192;28;44447;-80
2022/06/24 09:58:28;;;;;;;;;;;;;;;;;;5008272;28;44499;-78
2022/06/24 10:00:54;;;;;;;;;;;;;;;;;;5022079;28;46915;-78
2022/06/24 10:03:20;;;;;;;;;;;;;;;;;;5031066;28;45197;-79
2022/06/24 10:05:48;;;;;;;;;;;;;;;;;;5028867;28;48778;-78
2022/06/24 10:08:14;;;;;;;;;;;;;;;;;;5005687;28;44719;-78
2022/06/24 10:10:41;;;;;;;;;;;;;;;;;;5027186;28;47581;-78
2022/06/24 10:13:07;;;;;;;;;;;;;;;;;;5026928;28;47784;-79
2022/06/24 10:15:33;;;;;;;;;;;;;;;;;;5031181;28;44468;-78
2022/06/24 10:18:00;;;;;;;;;;;;;;;;;;5040566;28;46919;-78
2022/06/24 10:20:26;;;;;;;;;;;;;;;;;;5035670;28;48147;-79
2022/06/24 10:22:54;;;;;;;;;;;;;;;;;;5034135;28;44769;-78
2022/06/24 10:25:21;;;;;;;;;;;;;;;;;;5035937;28;47333;-77
2022/06/24 10:27:47;;;;;;;;;;;;;;;;;;5016494;28;47171;-78
2022/06/24 10:30:13;;;;;;;;;;;;;;;;;;5040742;28;46517;-79
2022/06/24 10:32:39;;;;;;;;;;;;;;;;;;5039834;28;48711;-79
2022/06/24 10:35:06;;;;;;;;;;;;;;;;;;5021660;28;42693;-79
2022/06/24 10:37:34;;;;;;;;;;;;;;;;;;5036675;28;43637;-79
2022/06/24 10:40:00;;;;;;;;;;;;;;;;;;5027001;28;47622;-79
2022/06/24 10:42:30;;;;;;;;;;;;;;;;;;5025606;28;42995;-78
2022/06/24 10:45:00;;;;;;;;;;;;;;;;;;5027191;28;43441;-78
2022/06/24 10:47:29;;;;;;;;;;;;;;;;;;5038590;28;48740;-77
2022/06/24 10:49:55;;;;;;;;;;;;;;;;;;5039846;28;42766;-78
2022/06/24 10:52:21;;;;;;;;;;;;;;;;;;5023995;28;45777;-78
2022/06/24 10:54:48;;;;;;;;;;;;;;;;;;5023570;28;45726;-77
2022/06/24 10:57:14;;;;;;;;;;;;;;;;;;5026551;28;45646;-78
2022/06/24 10:59:41;;;;;;;;;;;;;;;;;;5035016;28;48312;-79
2022/06/24 11:02:07;;;;;;;;;;;;;;;;;;5039883;28;44899;-78
2022/06/24 11:04:33;;;;;;;;;;;;;;;;;;5028886;28;47805;-79
2022/06/24 11:06:59;;;;;;;;;;;;;;;;;;5026815;28;45642;-79
2022/06/24 11:09:26;;;;;;;;;;;;;;;;;;5040636;28;44111;-79
2022/06/24 11:11:52;;;;;;;;;;;;;;;;;;5035806;28;48083;-79
2022/06/24 11:14:23;;;;;;;;;;;;;;;;;;5039417;28;45049;-77
2022/06/24 11:16:49;;;;;;;;;;;;;;;;;;5037036;28;47528;-79
2022/06/24 11:19:15;;;;;;;;;;;;;;;;;;5033872;28;48542;-79
2022/06/24 11:21:42;;;;;;;;;;;;;;;;;;5037444;28;45034;-79
2022/06/24 11:24:08;;;;;;;;;;;;;;;;;;5014296;28;46307;-78
2022/06/24 11:26:34;;;;;;;;;;;;;;;;;;5039472;28;47989;-77
2022/06/24 11:29:00;;;;;;;;;;;;;;;;;;5042335;28;45801;-78
2022/06/24 11:31:27;;;;;;;;;;;;;;;;;;5022630;28;46707;-79
2022/06/24 11:33:53;;;;;;;;;;;;;;;;;;5023453;28;45824;-79
2022/06/24 11:36:21;;;;;;;;;;;;;;;;;;5025545;28;48027;-79
2022/06/24 11:38:47;;;;;;;;;;;;;;;;;;5028237;28;48180;-78
2022/06/24 11:41:13;;;;;;;;;;;;;;;;;;5008569;28;42771;-78
2022/06/24 11:44:00;;;;;;;;;;;;;;;;;;5029978;28;19924;-79
2022/06/24 11:46:26;;;;;;;;;;;;;;;;;;5028492;28;46983;-78
2022/06/24 11:48:52;;;;;;;;;;;;;;;;;;5011476;28;42094;-78
2022/06/24 11:51:18;;;;;;;;;;;;;;;;;;5020170;28;46359;-80
2022/06/24 11:53:45;;;;;;;;;;;;;;;;;;5019627;28;46950;-79
2022/06/24 11:56:11;;;;;;;;;;;;;;;;;;5019555;28;47745;-79
2022/06/24 11:58:38;;;;;;;;;;;;;;;;;;5025289;28;48455;-83
2022/06/24 12:01:04;;;;;;;;;;;;;;;;;;5033747;28;44785;-81
2022/06/24 12:03:30;;;;;;;;;;;;;;;;;;5047936;28;44468;-81
2022/06/24 12:05:56;;;;;;;;;;;;;;;;;;5034999;28;45184;-81
2022/06/24 12:08:23;;;;;;;;;;;;;;;;;;5022170;28;44973;-81
2022/06/24 12:10:49;;;;;;;;;;;;;;;;;;5023436;28;46681;-81
2022/06/24 12:13:15;;;;;;;;;;;;;;;;;;5020584;28;48334;-80
2022/06/24 12:15:42;;;;;;;;;;;;;;;;;;5039065;28;45574;-80
2022/06/24 12:18:08;;;;;;;;;;;;;;;;;;5029237;28;46421;-79
2022/06/24 12:20:34;;;;;;;;;;;;;;;;;;5035861;28;44745;-79
2022/06/24 12:23:00;;;;;;;;;;;;;;;;;;5037480;28;48617;-79
2022/06/24 12:25:27;;;;;;;;;;;;;;;;;;5025622;28;45772;-79
2022/06/24 12:27:53;;;;;;;;;;;;;;;;;;5031785;28;45792;-79
2022/06/24 12:30:19;;;;;;;;;;;;;;;;;;5036982;28;46508;-78
2022/06/24 12:32:45;;;;;;;;;;;;;;;;;;5034194;28;47021;-79
2022/06/24 12:35:12;;;;;;;;;;;;;;;;;;5019464;28;46351;-81
2022/06/24 12:37:38;;;;;;;;;;;;;;;;;;5019318;28;45486;-79
2022/06/24 12:40:05;;;;;;;;;;;;;;;;;;5023491;28;44498;-81
2022/06/24 12:42:31;;;;;;;;;;;;;;;;;;5037181;28;47701;-81
2022/06/24 12:44:59;;;;;;;;;;;;;;;;;;5046526;28;48761;-80
2022/06/24 12:52:56;;;;;;;;;;;;;;;;;;5034849;28;46945;-80
2022/06/24 12:55:22;;;;;;;;;;;;;;;;;;5043330;28;45754;-81
2022/06/24 12:57:48;;;;;;;;;;;;;;;;;;5046770;28;47944;-79
2022/06/24 13:00:15;;;;;;;;;;;;;;;;;;5034246;28;34857;-81
2022/06/24 13:02:41;;;;;;;;;;;;;;;;;;5027911;28;46181;-79
2022/06/24 13:05:07;;;;;;;;;;;;;;;;;;5022599;28;48404;-79
2022/06/24 13:07:34;;;;;;;;;;;;;;;;;;5027957;28;46131;-79
2022/06/24 13:10:01;;;;;;;;;;;;;;;;;;5013474;28;49059;-79
2022/06/24 13:12:27;;;;;;;;;;;;;;;;;;5042998;28;47276;-79
2022/06/24 13:14:53;;;;;;;;;;;;;;;;;;5045480;28;43094;-79
2022/06/24 13:17:19;;;;;;;;;;;;;;;;;;5045944;28;47580;-79
2022/06/24 13:19:47;;;;;;;;;;;;;;;;;;5042620;28;48424;-79
2022/06/24 13:22:13;;;;;;;;;;;;;;;;;;5033078;28;45872;-80
2022/06/24 13:24:39;;;;;;;;;;;;;;;;;;5043303;28;46895;-78
2022/06/24 13:27:05;;;;;;;;;;;;;;;;;;5041434;28;45462;-79
2022/06/24 13:29:32;;;;;;;;;;;;;;;;;;5033541;28;48262;-80
2022/06/24 13:32:01;;;;;;;;;;;;;;;;;;5046733;28;48503;-80
2022/06/24 13:34:27;;;;;;;;;;;;;;;;;;5016669;28;46833;-80
2022/06/24 13:36:56;;;;;;;;;;;;;;;;;;5013362;28;45342;-80
2022/06/24 13:39:23;;;;;;;;;;;;;;;;;;5027960;28;48232;-79
2022/06/24 13:41:49;;;;;;;;;;;;;;;;;;5026590;28;47625;-78
2022/06/24 13:44:15;;;;;;;;;;;;;;;;;;5039420;28;43992;-79
2022/06/24 13:46:41;;;;;;;;;;;;;;;;;;5024411;28;45739;-78
2022/06/24 13:49:08;;;;;;;;;;;;;;;;;;5042317;28;45180;-80
2022/06/24 13:51:34;;;;;;;;;;;;;;;;;;5034148;28;47554;-79
2022/06/24 13:54:00;;;;;;;;;;;;;;;;;;5030435;28;47769;-80
2022/06/24 13:56:27;;;;;;;;;;;;;;;;;;5024935;28;44714;-80
2022/06/24 13:58:53;;;;;;;;;;;;;;;;;;5034197;28;44683;-80
2022/06/24 14:01:21;;;;;;;;;;;;;;;;;;5046488;28;42877;-80
2022/06/24 14:03:47;;;;;;;;;;;;;;;;;;5041961;28;44198;-80
2022/06/24 14:06:15;;;;;;;;;;;;;;;;;;5028142;28;45178;-80
2022/06/24 14:08:42;;;;;;;;;;;;;;;;;;5025080;28;44609;-81
2022/06/24 14:11:08;;;;;;;;;;;;;;;;;;5023965;28;47157;-80
2022/06/24 14:13:34;;;;;;;;;;;;;;;;;;5041275;28;43658;-80
2022/06/24 14:16:00;;;;;;;;;;;;;;;;;;5025656;28;47435;-80
2022/06/24 14:18:27;;;;;;;;;;;;;;;;;;5023594;28;46945;-80
2022/06/24 14:20:53;;;;;;;;;;;;;;;;;;5024774;28;46030;-80
2022/06/24 14:26:04;;;;;;;;;;;;;;;;;;5038985;28;47183;-80
2022/06/24 14:28:31;;;;;;;;;;;;;;;;;;5041208;28;44973;-78
2022/06/24 14:30:57;;;;;;;;;;;;;;;;;;5053391;28;45460;-80
2022/06/24 14:33:24;;;;;;;;;;;;;;;;;;5028047;28;44718;-79
2022/06/24 14:35:50;;;;;;;;;;;;;;;;;;5028044;28;47563;-82
2022/06/24 14:41:01;;;;;;;;;;;;;;;;;;5041844;28;43069;-81
2022/06/24 14:43:33;;;;;;;;;;;;;;;;;;5019352;28;47701;-80
2022/06/24 14:45:59;;;;;;;;;;;;;;;;;;5012339;28;45194;-83
2022/06/24 14:48:25;;;;;;;;;;;;;;;;;;5026660;28;44602;-81
2022/06/24 14:50:51;;;;;;;;;;;;;;;;;;5016460;28;46409;-79
2022/06/24 14:53:18;;;;;;;;;;;;;;;;;;5024842;28;43302;-79
2022/06/24 14:55:44;;;;;;;;;;;;;;;;;;5037288;28;47674;-80
2022/06/24 14:58:11;;;;;;;;;;;;;;;;;;5035818;28;47700;-79
2022/06/24 15:00:38;;;;;;;;;;;;;;;;;;5014766;28;45918;-79
2022/06/24 15:03:04;;;;;;;;;;;;;;;;;;5014769;28;46702;-80
2022/06/24 15:05:31;;;;;;;;;;;;;;;;;;5036727;28;45739;-79
2022/06/24 15:07:57;;;;;;;;;;;;;;;;;;5027021;28;45134;-77
2022/06/24 15:10:23;;;;;;;;;;;;;;;;;;5022804;28;46971;-78
2022/06/24 15:12:49;;;;;;;;;;;;;;;;;;5020447;28;44740;-79
2022/06/24 15:15:16;;;;;;;;;;;;;;;;;;5039026;28;46588;-80
2022/06/24 15:17:42;;;;;;;;;;;;;;;;;;5042925;28;47169;-82
2022/06/24 15:20:08;;;;;;;;;;;;;;;;;;5052170;28;43495;-82
2022/06/24 15:22:35;;;;;;;;;;;;;;;;;;5011961;28;47700;-82
2022/06/24 15:25:02;;;;;;;;;;;;;;;;;;5028938;28;47069;-78
2022/06/24 15:27:28;;;;;;;;;;;;;;;;;;5021566;28;46697;-80
2022/06/24 15:29:55;;;;;;;;;;;;;;;;;;5036367;28;46752;-79
2022/06/24 15:32:21;;;;;;;;;;;;;;;;;;5014662;28;46175;-80
2022/06/24 15:34:47;;;;;;;;;;;;;;;;;;5035997;28;46480;-80
2022/06/24 15:37:13;;;;;;;;;;;;;;;;;;5030542;28;47977;-86
2022/06/24 15:39:40;;;;;;;;;;;;;;;;;;5044490;28;43838;-86
2022/06/24 15:42:06;;;;;;;;;;;;;;;;;;5030902;28;45159;-85
2022/06/24 15:44:33;;;;;;;;;;;;;;;;;;5031814;28;47015;-83
2022/06/24 15:47:00;;;;;;;;;;;;;;;;;;5025812;28;45052;-86
2022/06/24 15:49:26;;;;;;;;;;;;;;;;;;5023728;28;44801;-86
2022/06/24 15:51:52;;;;;;;;;;;;;;;;;;5044793;28;46880;-85
2022/06/24 15:54:19;;;;;;;;;;;;;;;;;;5017778;28;46510;-84
2022/06/24 15:56:46;;;;;;;;;;;;;;;;;;5032136;28;46891;-84
2022/06/24 15:59:12;;;;;;;;;;;;;;;;;;5043042;28;44590;-83
2022/06/24 16:01:38;;;;;;;;;;;;;;;;;;5034026;28;46814;-81
2022/06/24 16:04:05;;;;;;;;;;;;;;;;;;5042271;28;47096;-81
2022/06/24 16:06:31;;;;;;;;;;;;;;;;;;5025208;28;45100;-87
2022/06/24 16:08:57;;;;;;;;;;;;;;;;;;5043123;28;47323;-85
2022/06/24 16:11:24;;;;;;;;;;;;;;;;;;5021141;28;44436;-83
2022/06/24 16:13:50;;;;;;;;;;;;;;;;;;5025471;28;44705;-84
2022/06/24 16:16:16;;;;;;;;;;;;;;;;;;5036547;28;47201;-84
2022/06/24 16:18:43;;;;;;;;;;;;;;;;;;5032156;28;46929;-83
2022/06/24 16:21:09;;;;;;;;;;;;;;;;;;5031723;28;46760;-83
2022/06/24 16:23:36;;;;;;;;;;;;;;;;;;5035680;28;47946;-83
2022/06/24 16:28:49;;;;;;;;;;;;;;;;;;5039444;28;46022;-83
2022/06/24 16:31:16;;;;;;;;;;;;;;;;;;5020661;28;45453;-84
2022/06/24 16:33:42;;;;;;;;;;;;;;;;;;5019852;28;44190;-82
2022/06/24 16:36:09;;;;;;;;;;;;;;;;;;5032378;28;46775;-86
2022/06/24 16:38:35;;;;;;;;;;;;;;;;;;5025306;28;43589;-84
2022/06/24 16:41:01;;;;;;;;;;;;;;;;;;5021918;28;47017;-84
2022/06/24 16:43:31;;;;;;;;;;;;;;;;;;5018664;28;44372;-83
2022/06/24 16:46:06;;;;;;;;;;;;;;;;;;5037506;28;42563;-84
2022/06/24 16:48:33;;;;;;;;;;;;;;;;;;5020114;28;45105;-84
2022/06/24 16:51:00;;;;;;;;;;;;;;;;;;5043015;28;48707;-84
2022/06/24 16:53:26;;;;;;;;;;;;;;;;;;5023484;28;44553;-85
2022/06/24 16:55:53;;;;;;;;;;;;;;;;;;5021978;28;46254;-83
2022/06/24 16:58:19;;;;;;;;;;;;;;;;;;5014579;28;46810;-84
2022/06/24 17:00:45;;;;;;;;;;;;;;;;;;5009759;28;47305;-85
2022/06/24 17:03:11;;;;;;;;;;;;;;;;;;5024300;28;45314;-84
2022/06/24 17:05:38;;;;;;;;;;;;;;;;;;5024108;28;43200;-84